createdAt,value
2018-09-14T00:01:46.414Z,11.70
2018-09-14T00:04:15.059Z,11.80
2018-09-14T00:06:43.610Z,11.60
2018-09-14T00:09:13.354Z,11.50
2018-09-14T00:11:42.202Z,11.50
2018-09-14T00:14:10.846Z,11.30
2018-09-14T00:16:39.430Z,11.50
2018-09-14T00:19:08.100Z,11.30
2018-09-14T00:21:38.200Z,11.30
2018-09-14T00:24:06.820Z,11.30
2018-09-14T00:26:35.352Z,11.40
2018-09-14T00:29:03.976Z,11.50
2018-09-14T00:31:32.527Z,11.40
2018-09-14T00:34:01.135Z,11.40
2018-09-14T00:36:29.738Z,11.60
2018-09-14T00:38:58.493Z,11.50
2018-09-14T00:41:27.258Z,11.40
2018-09-14T00:43:59.772Z,11.50
2018-09-14T00:46:28.362Z,11.50
2018-09-14T00:48:56.977Z,11.30
2018-09-14T00:51:25.589Z,11.30
2018-09-14T00:53:54.279Z,11.20
2018-09-14T00:56:22.997Z,11.20
2018-09-14T00:58:51.580Z,11.10
2018-09-14T01:01:20.227Z,11.10
2018-09-14T01:03:48.911Z,10.70
2018-09-14T01:06:17.667Z,10.70
2018-09-14T01:08:46.285Z,10.60
2018-09-14T01:11:14.889Z,10.80
2018-09-14T01:13:43.489Z,10.90
2018-09-14T01:16:12.053Z,10.50
2018-09-14T01:18:40.656Z,10.50
2018-09-14T01:21:09.341Z,10.40
2018-09-14T01:23:38.111Z,10.30
2018-09-14T01:26:06.815Z,10.30
2018-09-14T01:28:35.591Z,10.10
2018-09-14T01:31:04.324Z,10.10
2018-09-14T01:33:32.904Z,10.20
2018-09-14T01:36:12.826Z,10.20
2018-09-14T01:38:41.966Z,10.20
2018-09-14T01:41:10.916Z,10.10
2018-09-14T01:43:39.653Z,10.20
2018-09-14T01:46:08.348Z,10.00
2018-09-14T01:48:37.217Z,9.80
2018-09-14T01:51:05.856Z,10.00
2018-09-14T01:53:34.552Z,10.20
2018-09-14T01:56:03.141Z,10.40
2018-09-14T01:58:31.774Z,10.50
2018-09-14T02:01:00.346Z,10.60
2018-09-14T02:03:28.960Z,10.60
2018-09-14T02:05:57.488Z,10.40
2018-09-14T02:08:26.030Z,10.40
2018-09-14T02:10:54.784Z,10.20
2018-09-14T02:13:23.349Z,10.20
2018-09-14T02:15:51.956Z,10.10
2018-09-14T02:18:20.579Z,10.20
2018-09-14T02:20:49.197Z,10.20
2018-09-14T02:23:17.776Z,10.00
2018-09-14T02:25:46.330Z,10.00
2018-09-14T02:28:14.956Z,10.00
2018-09-14T02:30:43.540Z,9.80
2018-09-14T02:33:13.881Z,9.90
2018-09-14T02:35:42.529Z,10.00
2018-09-14T02:38:11.479Z,9.90
2018-09-14T02:40:40.205Z,9.80
2018-09-14T02:43:08.838Z,9.90
2018-09-14T02:45:37.414Z,9.60
2018-09-14T02:48:06.048Z,9.90
2018-09-14T02:50:34.639Z,9.60
2018-09-14T02:53:03.153Z,9.50
2018-09-14T02:55:45.111Z,9.50
2018-09-14T02:58:13.709Z,9.50
2018-09-14T03:00:42.211Z,9.50
2018-09-14T03:03:10.756Z,9.50
2018-09-14T03:05:39.341Z,9.50
2018-09-14T03:08:08.023Z,9.60
2018-09-14T03:10:36.607Z,9.60
2018-09-14T03:13:05.235Z,9.70
2018-09-14T03:15:33.845Z,9.50
2018-09-14T03:18:07.761Z,10.00
2018-09-14T03:20:36.385Z,10.10
2018-09-14T03:23:04.923Z,10.20
2018-09-14T03:25:33.497Z,10.40
2018-09-14T03:28:02.055Z,10.60
2018-09-14T03:30:30.683Z,10.80
2018-09-14T03:32:59.342Z,10.50
2018-09-14T03:35:27.944Z,10.30
2018-09-14T03:37:56.520Z,10.10
2018-09-14T03:40:38.382Z,10.40
2018-09-14T03:43:06.956Z,10.40
2018-09-14T03:45:35.556Z,10.50
2018-09-14T03:48:04.143Z,10.60
2018-09-14T03:50:32.676Z,10.50
2018-09-14T03:53:01.213Z,10.20
2018-09-14T03:55:29.774Z,10.30
2018-09-14T03:57:58.310Z,10.40
2018-09-14T04:00:26.818Z,10.40
2018-09-14T04:02:56.721Z,10.50
2018-09-14T04:05:25.292Z,10.50
2018-09-14T04:07:53.888Z,10.40
2018-09-14T04:10:22.424Z,10.60
2018-09-14T04:12:51.032Z,10.60
2018-09-14T04:15:19.553Z,10.60
2018-09-14T04:17:48.111Z,10.30
2018-09-14T04:20:16.735Z,10.30
2018-09-14T04:22:45.361Z,10.40
2018-09-14T04:25:15.474Z,10.30
2018-09-14T04:27:44.014Z,10.40
2018-09-14T04:30:12.574Z,10.50
2018-09-14T04:32:41.130Z,10.60
2018-09-14T04:35:09.827Z,10.50
2018-09-14T04:37:38.336Z,10.50
2018-09-14T04:40:06.898Z,10.40
2018-09-14T04:42:35.532Z,10.50
2018-09-14T04:45:04.143Z,10.40
2018-09-14T04:47:36.113Z,10.50
2018-09-14T04:50:04.718Z,10.70
2018-09-14T04:52:33.284Z,10.50
2018-09-14T04:55:01.929Z,10.50
2018-09-14T04:57:30.531Z,10.50
2018-09-14T04:59:59.071Z,10.50
2018-09-14T05:02:27.694Z,10.70
2018-09-14T05:04:56.353Z,10.50
2018-09-14T05:07:24.972Z,10.60
2018-09-14T05:09:54.839Z,10.60
2018-09-14T05:12:23.421Z,10.60
2018-09-14T05:14:52.032Z,10.80
2018-09-14T05:17:20.604Z,10.50
2018-09-14T05:19:49.193Z,10.30
2018-09-14T05:22:17.826Z,10.20
2018-09-14T05:24:46.368Z,10.30
2018-09-14T05:27:14.945Z,10.40
2018-09-14T05:29:43.519Z,10.40
2018-09-14T05:32:12.108Z,10.20
2018-09-14T05:34:40.692Z,10.20
2018-09-14T05:37:09.291Z,10.20
2018-09-14T05:39:37.835Z,10.30
2018-09-14T05:42:06.439Z,10.40
2018-09-14T05:44:34.979Z,10.60
2018-09-14T05:47:03.550Z,11.10
2018-09-14T05:49:32.086Z,11.30
2018-09-14T05:52:00.687Z,11.10
2018-09-14T05:54:29.288Z,11.00
2018-09-14T05:56:57.861Z,11.30
2018-09-14T05:59:26.469Z,11.20
2018-09-14T06:01:55.107Z,11.30
2018-09-14T06:04:23.630Z,11.30
2018-09-14T06:06:52.195Z,11.40
2018-09-14T06:09:20.781Z,11.50
2018-09-14T06:11:49.339Z,11.50
2018-09-14T06:14:23.832Z,11.60
2018-09-14T06:16:52.424Z,11.40
2018-09-14T06:19:21.055Z,11.40
2018-09-14T06:21:50.047Z,11.50
2018-09-14T06:24:18.630Z,11.60
2018-09-14T06:26:47.223Z,11.60
2018-09-14T06:29:15.809Z,11.70
2018-09-14T06:31:44.387Z,11.70
2018-09-14T06:34:12.924Z,11.60
2018-09-14T06:36:41.753Z,11.80
2018-09-14T06:39:11.605Z,11.90
2018-09-14T06:41:40.189Z,12.10
2018-09-14T06:44:09.336Z,12.00
2018-09-14T06:46:37.920Z,12.10
2018-09-14T06:49:06.622Z,12.30
2018-09-14T06:51:36.696Z,12.50
2018-09-14T06:54:05.315Z,12.70
2018-09-14T06:56:33.891Z,12.70
2018-09-14T06:59:03.662Z,13.00
2018-09-14T07:01:32.245Z,13.30
2018-09-14T07:04:00.959Z,13.20
2018-09-14T07:06:29.661Z,13.30
2018-09-14T07:08:58.254Z,13.30
2018-09-14T07:11:26.793Z,13.30
2018-09-14T07:13:55.377Z,13.40
2018-09-14T07:16:23.995Z,13.40
2018-09-14T07:18:52.660Z,13.30
2018-09-14T07:21:24.636Z,13.70
2018-09-14T07:23:53.195Z,13.50
2018-09-14T07:26:21.884Z,13.50
2018-09-14T07:28:50.765Z,13.70
2018-09-14T07:31:20.060Z,13.60
2018-09-14T07:33:48.932Z,13.70
2018-09-14T07:36:17.576Z,13.70
2018-09-14T07:38:46.275Z,13.60
2018-09-14T07:41:14.888Z,13.70
2018-09-14T07:43:44.355Z,13.80
2018-09-14T07:46:13.081Z,13.70
2018-09-14T07:48:41.678Z,13.70
2018-09-14T07:51:10.463Z,13.70
2018-09-14T07:53:39.174Z,13.80
2018-09-14T07:56:07.808Z,13.70
2018-09-14T07:58:36.521Z,13.70
2018-09-14T08:01:05.285Z,13.90
2018-09-14T08:03:34.023Z,13.90
2018-09-14T08:06:06.338Z,14.00
2018-09-14T08:08:35.053Z,14.00
2018-09-14T08:11:03.714Z,14.10
2018-09-14T08:13:32.396Z,14.20
2018-09-14T08:16:01.035Z,14.10
2018-09-14T08:18:29.747Z,14.20
2018-09-14T08:20:58.451Z,14.20
2018-09-14T08:23:27.127Z,14.20
2018-09-14T08:25:55.802Z,14.20
2018-09-14T08:28:27.737Z,14.20
2018-09-14T08:30:56.353Z,14.40
2018-09-14T08:33:24.990Z,14.50
2018-09-14T08:35:53.731Z,14.50
2018-09-14T08:38:22.423Z,14.50
2018-09-14T08:40:51.107Z,14.60
2018-09-14T08:43:19.813Z,14.90
2018-09-14T08:45:48.573Z,15.10
2018-09-14T08:48:17.240Z,15.50
2018-09-14T08:50:46.795Z,15.60
2018-09-14T08:53:15.442Z,15.60
2018-09-14T08:55:44.388Z,15.40
2018-09-14T08:58:13.644Z,15.50
2018-09-14T09:00:42.436Z,15.50
2018-09-14T09:03:11.058Z,15.50
2018-09-14T09:05:39.802Z,15.50
2018-09-14T09:08:08.508Z,15.50
2018-09-14T09:10:37.275Z,15.50
2018-09-14T09:13:07.479Z,15.40
2018-09-14T09:15:36.487Z,15.60
2018-09-14T09:18:05.217Z,15.70
2018-09-14T09:20:33.988Z,15.80
2018-09-14T09:23:03.895Z,16.00
2018-09-14T09:25:32.745Z,16.00
2018-09-14T09:28:01.429Z,16.00
2018-09-14T09:30:31.146Z,15.90
2018-09-14T09:32:59.948Z,16.00
2018-09-14T09:35:28.720Z,16.00
2018-09-14T09:37:57.339Z,16.10
2018-09-14T09:40:25.979Z,16.30
2018-09-14T09:42:54.644Z,16.40
2018-09-14T09:45:23.414Z,16.40
2018-09-14T09:47:52.189Z,16.60
2018-09-14T09:50:21.323Z,16.80
2018-09-14T09:52:53.692Z,16.80
2018-09-14T09:55:22.519Z,16.60
2018-09-14T09:57:51.245Z,16.60
2018-09-14T10:00:25.204Z,16.70
2018-09-14T10:02:59.276Z,16.90
2018-09-14T10:05:33.193Z,17.10
2018-09-14T10:08:15.829Z,17.20
2018-09-14T10:10:44.679Z,17.20
2018-09-14T10:13:13.340Z,17.20
2018-09-14T10:15:42.230Z,17.10
2018-09-14T10:18:28.156Z,17.00
2018-09-14T10:21:02.108Z,17.00
2018-09-14T10:23:35.207Z,16.80
2018-09-14T10:26:04.291Z,16.70
2018-09-14T10:28:36.336Z,16.60
2018-09-14T10:31:04.964Z,16.60
2018-09-14T10:33:33.884Z,16.40
2018-09-14T10:36:02.886Z,16.60
2018-09-14T10:38:32.268Z,16.50
2018-09-14T10:41:02.506Z,16.50
2018-09-14T10:43:31.089Z,16.50
2018-09-14T10:45:59.676Z,16.40
2018-09-14T10:48:28.200Z,16.30
2018-09-14T10:50:56.789Z,16.50
2018-09-14T10:53:25.399Z,16.70
2018-09-14T10:55:54.564Z,16.80
2018-09-14T10:58:23.636Z,16.80
2018-09-14T11:00:52.288Z,16.80
2018-09-14T11:03:21.786Z,16.80
2018-09-14T11:05:50.430Z,16.80
2018-09-14T11:08:19.213Z,17.00
2018-09-14T11:10:47.961Z,17.00
2018-09-14T11:13:16.526Z,17.10
2018-09-14T11:15:45.105Z,17.10
2018-09-14T11:18:13.696Z,17.20
2018-09-14T11:20:42.351Z,17.20
2018-09-14T11:23:11.089Z,17.10
2018-09-14T11:25:39.680Z,17.00
2018-09-14T11:28:08.507Z,16.90
2018-09-14T11:30:37.384Z,17.00
2018-09-14T11:33:06.137Z,17.00
2018-09-14T11:35:34.769Z,16.90
2018-09-14T11:38:03.529Z,16.90
2018-09-14T11:40:32.124Z,16.80
2018-09-14T11:43:01.085Z,16.80
2018-09-14T11:45:29.624Z,16.80
2018-09-14T11:47:58.224Z,16.90
2018-09-14T11:50:26.786Z,17.10
2018-09-14T11:52:55.398Z,17.10
2018-09-14T11:55:24.097Z,17.00
2018-09-14T11:57:52.679Z,17.00
2018-09-14T12:00:21.269Z,17.10
2018-09-14T12:02:50.021Z,17.10
2018-09-14T12:05:18.735Z,17.10
2018-09-14T12:07:47.275Z,17.10
2018-09-14T12:10:15.829Z,17.00
2018-09-14T12:12:44.407Z,17.10
2018-09-14T12:15:12.979Z,17.10
2018-09-14T12:17:41.821Z,17.00
2018-09-14T12:20:10.498Z,17.10
2018-09-14T12:22:39.229Z,17.10
2018-09-14T12:25:07.955Z,17.10
2018-09-14T12:27:36.540Z,17.10
2018-09-14T12:30:05.509Z,17.10
2018-09-14T12:32:34.194Z,17.10
2018-09-14T12:35:02.893Z,17.00
2018-09-14T12:37:31.465Z,17.10
2018-09-14T12:40:00.015Z,17.30
2018-09-14T12:42:28.572Z,17.20
2018-09-14T12:44:57.136Z,17.20
2018-09-14T12:47:25.722Z,17.40
2018-09-14T12:49:54.261Z,17.40
2018-09-14T12:52:22.834Z,17.40
2018-09-14T12:54:51.482Z,17.70
2018-09-14T12:57:20.231Z,17.80
2018-09-14T12:59:48.861Z,17.80
2018-09-14T13:02:17.877Z,17.70
2018-09-14T13:04:47.234Z,17.70
2018-09-14T13:07:15.834Z,17.60
2018-09-14T13:09:44.540Z,17.50
2018-09-14T13:12:13.183Z,17.60
2018-09-14T13:14:41.914Z,17.70
2018-09-14T13:17:12.418Z,17.60
2018-09-14T13:19:41.539Z,17.60
2018-09-14T13:22:10.450Z,17.70
2018-09-14T13:24:39.366Z,17.80
2018-09-14T13:27:07.973Z,17.80
2018-09-14T13:29:36.884Z,17.70
2018-09-14T13:32:05.471Z,17.70
2018-09-14T13:34:34.039Z,17.80
2018-09-14T13:37:02.724Z,17.90
2018-09-14T13:39:31.782Z,17.80
2018-09-14T13:42:00.363Z,17.50
2018-09-14T13:44:28.896Z,17.60
2018-09-14T13:46:57.464Z,17.50
2018-09-14T13:49:26.164Z,17.30
2018-09-14T13:51:54.714Z,17.20
2018-09-14T13:54:23.251Z,17.40
2018-09-14T13:56:52.267Z,17.40
2018-09-14T13:59:20.839Z,17.30
2018-09-14T14:01:49.794Z,17.40
2018-09-14T14:04:18.341Z,17.40
2018-09-14T14:06:47.074Z,17.50
2018-09-14T14:09:15.715Z,17.50
2018-09-14T14:11:44.550Z,17.50
2018-09-14T14:14:13.147Z,17.50
2018-09-14T14:16:41.780Z,17.60
2018-09-14T14:19:10.658Z,17.60
2018-09-14T14:21:39.421Z,17.60
2018-09-14T14:24:08.065Z,17.70
2018-09-14T14:26:36.634Z,17.80
2018-09-14T14:29:05.325Z,17.80
2018-09-14T14:31:33.888Z,17.70
2018-09-14T14:34:02.517Z,17.60
2018-09-14T14:36:31.081Z,17.60
2018-09-14T14:38:59.583Z,17.50
2018-09-14T14:41:28.176Z,17.50
2018-09-14T14:43:56.683Z,17.50
2018-09-14T14:46:25.231Z,17.50
2018-09-14T14:48:53.840Z,17.40
2018-09-14T14:51:22.713Z,17.40
2018-09-14T14:53:51.255Z,17.40
2018-09-14T14:56:19.784Z,17.30
2018-09-14T14:58:48.474Z,17.40
2018-09-14T15:01:17.056Z,17.50
2018-09-14T15:03:45.613Z,17.50
2018-09-14T15:06:14.146Z,17.40
2018-09-14T15:08:42.717Z,17.30
2018-09-14T15:11:11.409Z,17.40
2018-09-14T15:13:40.037Z,17.50
2018-09-14T15:16:08.634Z,17.40
2018-09-14T15:18:37.196Z,17.40
2018-09-14T15:21:05.882Z,17.30
2018-09-14T15:23:34.482Z,17.30
2018-09-14T15:26:03.066Z,17.30
2018-09-14T15:28:31.764Z,17.10
2018-09-14T15:31:00.336Z,17.30
2018-09-14T15:33:28.976Z,17.30
2018-09-14T15:35:58.518Z,17.30
2018-09-14T15:38:27.159Z,17.30
2018-09-14T15:40:55.729Z,17.30
2018-09-14T15:43:24.301Z,17.30
2018-09-14T15:45:52.896Z,17.40
2018-09-14T15:48:22.146Z,17.40
2018-09-14T15:50:50.735Z,17.40
2018-09-14T15:53:19.324Z,17.30
2018-09-14T15:55:47.916Z,17.40
2018-09-14T15:58:16.663Z,17.20
2018-09-14T16:00:45.873Z,17.20
2018-09-14T16:03:15.174Z,17.30
2018-09-14T16:05:44.247Z,17.10
2018-09-14T16:08:12.939Z,17.00
2018-09-14T16:10:41.606Z,17.00
2018-09-14T16:13:10.178Z,17.00
2018-09-14T16:15:38.808Z,17.20
2018-09-14T16:18:07.413Z,17.10
2018-09-14T16:20:36.581Z,17.10
2018-09-14T16:23:05.538Z,17.00
2018-09-14T16:25:35.034Z,17.00
2018-09-14T16:28:03.596Z,16.90
2018-09-14T16:30:32.154Z,17.00
2018-09-14T16:33:00.735Z,17.10
2018-09-14T16:35:29.303Z,17.30
2018-09-14T16:37:58.035Z,17.10
2018-09-14T16:40:26.684Z,17.10
2018-09-14T16:42:55.666Z,17.20
2018-09-14T16:45:24.211Z,17.30
2018-09-14T16:47:52.806Z,17.20
2018-09-14T16:50:21.452Z,17.20
2018-09-14T16:52:50.186Z,17.10
2018-09-14T16:55:18.758Z,17.10
2018-09-14T16:57:47.482Z,17.10
2018-09-14T17:00:16.081Z,17.10
2018-09-14T17:02:45.565Z,17.00
2018-09-14T17:05:14.440Z,16.90
2018-09-14T17:07:43.179Z,16.80
2018-09-14T17:10:12.113Z,16.70
2018-09-14T17:12:40.945Z,16.60
2018-09-14T17:15:09.745Z,16.60
2018-09-14T17:17:38.268Z,16.60
2018-09-14T17:20:06.970Z,16.60
2018-09-14T17:22:35.516Z,16.40
2018-09-14T17:25:04.240Z,16.30
2018-09-14T17:27:32.991Z,16.30
2018-09-14T17:30:01.570Z,16.40
2018-09-14T17:32:30.553Z,16.50
2018-09-14T17:34:59.116Z,16.40
2018-09-14T17:37:27.928Z,16.50
2018-09-14T17:39:56.688Z,16.40
2018-09-14T17:42:25.235Z,16.20
2018-09-14T17:44:53.984Z,16.20
2018-09-14T17:47:22.618Z,16.20
2018-09-14T17:49:52.002Z,16.30
2018-09-14T17:52:20.986Z,16.30
2018-09-14T17:54:49.587Z,16.30
2018-09-14T17:57:18.536Z,16.60
2018-09-14T17:59:47.115Z,16.40
2018-09-14T18:02:15.764Z,16.20
2018-09-14T18:04:44.365Z,16.20
2018-09-14T18:07:12.903Z,16.30
2018-09-14T18:09:41.445Z,16.30
2018-09-14T18:12:10.203Z,16.20
2018-09-14T18:14:38.750Z,16.30
2018-09-14T18:17:07.420Z,16.10
2018-09-14T18:19:35.946Z,16.10
2018-09-14T18:22:04.558Z,16.10
2018-09-14T18:24:33.100Z,16.10
2018-09-14T18:27:02.347Z,16.00
2018-09-14T18:29:32.097Z,16.00
2018-09-14T18:32:00.666Z,16.10
2018-09-14T18:34:29.450Z,15.90
2018-09-14T18:36:58.404Z,15.80
2018-09-14T18:39:26.998Z,15.90
2018-09-14T18:41:55.542Z,16.00
2018-09-14T18:44:24.157Z,16.00
2018-09-14T18:46:52.746Z,16.00
2018-09-14T18:49:21.308Z,15.90
2018-09-14T18:51:50.519Z,15.90
2018-09-14T18:54:19.263Z,15.90
2018-09-14T18:56:48.063Z,15.90
2018-09-14T18:59:16.900Z,15.70
2018-09-14T19:01:45.466Z,15.60
2018-09-14T19:04:14.895Z,15.60
2018-09-14T19:06:43.452Z,15.60
2018-09-14T19:09:12.863Z,15.40
2018-09-14T19:11:41.436Z,15.40
2018-09-14T19:14:10.010Z,15.40
2018-09-14T19:16:38.555Z,15.20
2018-09-14T19:19:07.303Z,15.30
2018-09-14T19:21:35.911Z,15.40
2018-09-14T19:24:04.465Z,15.20
2018-09-14T19:26:33.033Z,15.30
2018-09-14T19:29:01.571Z,15.20
2018-09-14T19:31:30.170Z,15.30
2018-09-14T19:33:58.872Z,15.30
2018-09-14T19:36:27.517Z,15.10
2018-09-14T19:38:56.118Z,15.10
2018-09-14T19:41:24.860Z,15.00
2018-09-14T19:43:53.455Z,15.00
2018-09-14T19:46:22.065Z,14.80
2018-09-14T19:48:50.715Z,14.80
2018-09-14T19:51:19.272Z,14.90
2018-09-14T19:53:47.913Z,14.90
2018-09-14T19:56:16.530Z,14.80
2018-09-14T19:58:45.080Z,14.90
2018-09-14T20:01:13.631Z,14.90
2018-09-14T20:03:42.474Z,14.90
2018-09-14T20:06:11.055Z,14.70
2018-09-14T20:08:39.587Z,14.70
2018-09-14T20:11:08.136Z,14.60
2018-09-14T20:13:36.658Z,14.80
2018-09-14T20:16:05.221Z,14.80
2018-09-14T20:18:33.774Z,14.70
2018-09-14T20:21:02.318Z,14.80
2018-09-14T20:23:30.885Z,15.00
2018-09-14T20:25:59.815Z,14.90
2018-09-14T20:28:28.344Z,14.90
2018-09-14T20:30:56.977Z,15.00
2018-09-14T20:33:25.609Z,15.00
2018-09-14T20:35:54.102Z,15.00
2018-09-14T20:38:23.023Z,14.90
2018-09-14T20:40:51.649Z,14.80
2018-09-14T20:43:20.243Z,15.00
2018-09-14T20:45:48.755Z,14.80
2018-09-14T20:48:17.585Z,14.70
2018-09-14T20:50:46.303Z,14.80
2018-09-14T20:53:14.912Z,14.80
2018-09-14T20:55:43.522Z,14.90
2018-09-14T20:58:12.195Z,14.60
2018-09-14T21:00:40.835Z,14.80
2018-09-14T21:03:09.392Z,14.70
2018-09-14T21:05:37.978Z,14.70
2018-09-14T21:08:06.615Z,14.60
2018-09-14T21:10:35.458Z,14.70
2018-09-14T21:13:04.092Z,14.70
2018-09-14T21:15:32.617Z,14.80
2018-09-14T21:18:01.149Z,14.80
2018-09-14T21:20:29.687Z,14.60
2018-09-14T21:22:58.236Z,14.50
2018-09-14T21:25:26.899Z,14.50
2018-09-14T21:27:55.432Z,14.70
2018-09-14T21:30:23.968Z,14.50
2018-09-14T21:32:52.673Z,14.50
2018-09-14T21:35:21.383Z,14.50
2018-09-14T21:37:49.920Z,14.40
2018-09-14T21:40:18.499Z,14.40
2018-09-14T21:42:47.075Z,14.70
2018-09-14T21:45:15.670Z,14.50
2018-09-14T21:47:44.215Z,14.50
2018-09-14T21:50:12.840Z,14.40
2018-09-14T21:52:41.496Z,14.30
2018-09-14T21:55:10.288Z,14.40
2018-09-14T21:57:38.958Z,14.40
2018-09-14T22:00:13.961Z,14.60
2018-09-14T22:02:42.669Z,14.60
2018-09-14T22:05:11.388Z,14.50
2018-09-14T22:07:39.957Z,14.50
2018-09-14T22:10:08.559Z,14.40
2018-09-14T22:12:37.315Z,14.40
2018-09-14T22:15:05.937Z,14.60
2018-09-14T22:17:34.491Z,14.60
2018-09-14T22:20:03.469Z,14.60
2018-09-14T22:22:32.278Z,14.60
2018-09-14T22:25:00.848Z,14.60
2018-09-14T22:27:29.719Z,14.60
2018-09-14T22:29:58.309Z,14.60
2018-09-14T22:32:26.915Z,14.50
2018-09-14T22:34:55.464Z,14.60
2018-09-14T22:37:24.397Z,14.70
2018-09-14T22:39:52.939Z,14.80
2018-09-14T22:42:21.970Z,14.50
2018-09-14T22:44:50.933Z,14.60
2018-09-14T22:47:19.474Z,14.60
2018-09-14T22:49:48.171Z,14.50
2018-09-14T22:52:16.997Z,14.50
2018-09-14T22:54:45.723Z,14.60
2018-09-14T22:57:14.247Z,14.50
2018-09-14T22:59:44.178Z,14.50
2018-09-14T23:02:12.691Z,14.60
2018-09-14T23:04:41.338Z,14.50
2018-09-14T23:07:11.111Z,14.60
2018-09-14T23:09:39.714Z,14.60
2018-09-14T23:12:08.490Z,14.60
2018-09-14T23:14:37.019Z,14.60
2018-09-14T23:17:05.732Z,14.60
2018-09-14T23:19:34.351Z,14.90
2018-09-14T23:22:03.404Z,14.50
2018-09-14T23:24:32.037Z,14.60
2018-09-14T23:27:00.780Z,14.50
2018-09-14T23:29:30.052Z,14.60
2018-09-14T23:31:59.376Z,14.50
2018-09-14T23:34:28.178Z,14.50
2018-09-14T23:36:56.963Z,14.40
2018-09-14T23:39:25.487Z,14.30
2018-09-14T23:41:54.048Z,14.30
2018-09-14T23:44:22.979Z,14.30
2018-09-14T23:46:51.690Z,14.30
2018-09-14T23:49:20.212Z,14.20
2018-09-14T23:51:48.737Z,14.20
2018-09-14T23:54:17.882Z,14.20
2018-09-14T23:56:46.563Z,14.10
2018-09-14T23:59:15.093Z,14.00
